sensor_id;sensor_type;location;lat;lon;timestamp;P1;durP1;ratioP1;P2;durP2;ratioP2
60979;SDS011;46851;49.160;8.980;2023-04-12T18:56:31;1.92;;;1.60;;
60979;SDS011;46851;49.160;8.980;2023-04-12T18:58:58;2.38;;;1.50;;
60979;SDS011;46851;49.160;8.980;2023-04-12T19:01:26;1.85;;;1.35;;
60979;SDS011;46851;49.160;8.980;2023-04-12T19:03:52;3.17;;;1.65;;
60979;SDS011;46851;49.160;8.980;2023-04-12T19:06:18;1.70;;;1.60;;
60979;SDS011;46851;49.160;8.980;2023-04-12T19:08:44;3.92;;;2.50;;
60979;SDS011;46851;49.160;8.980;2023-04-12T19:11:10;7.88;;;3.10;;
60979;SDS011;46851;49.160;8.980;2023-04-12T19:13:36;3.85;;;2.45;;
60979;SDS011;46851;49.160;8.980;2023-04-12T19:16:02;3.45;;;1.50;;
60979;SDS011;46851;49.160;8.980;2023-04-12T19:18:31;1.60;;;1.35;;
60979;SDS011;46851;49.160;8.980;2023-04-12T19:20:57;1.70;;;1.40;;
60979;SDS011;46851;49.160;8.980;2023-04-12T19:23:23;4.68;;;2.70;;
60979;SDS011;46851;49.160;8.980;2023-04-12T19:25:49;3.42;;;1.52;;
60979;SDS011;46851;49.160;8.980;2023-04-12T19:28:16;3.30;;;2.30;;
60979;SDS011;46851;49.160;8.980;2023-04-12T19:30:43;2.40;;;1.50;;
60979;SDS011;46851;49.160;8.980;2023-04-12T19:33:08;1.30;;;1.20;;
60979;SDS011;46851;49.160;8.980;2023-04-12T19:35:34;4.03;;;0.95;;
60979;SDS011;46851;49.160;8.980;2023-04-12T19:38:01;1.60;;;1.27;;
60979;SDS011;46851;49.160;8.980;2023-04-12T19:40:27;1.50;;;1.00;;
60979;SDS011;46851;49.160;8.980;2023-04-12T19:42:53;3.03;;;1.30;;
60979;SDS011;46851;49.160;8.980;2023-04-12T19:45:19;4.93;;;1.35;;
60979;SDS011;46851;49.160;8.980;2023-04-12T19:47:45;2.15;;;1.38;;
60979;SDS011;46851;49.160;8.980;2023-04-12T19:50:13;3.92;;;1.50;;
60979;SDS011;46851;49.160;8.980;2023-04-12T19:52:40;8.63;;;1.63;;
60979;SDS011;46851;49.160;8.980;2023-04-12T19:55:09;3.95;;;1.50;;
60979;SDS011;46851;49.160;8.980;2023-04-12T19:57:36;2.75;;;1.98;;
60979;SDS011;46851;49.160;8.980;2023-04-12T20:00:03;3.55;;;3.17;;
60979;SDS011;46851;49.160;8.980;2023-04-12T20:02:36;3.75;;;2.30;;
60979;SDS011;46851;49.160;8.980;2023-04-12T20:05:03;3.00;;;2.00;;
60979;SDS011;46851;49.160;8.980;2023-04-12T20:07:29;1.88;;;1.48;;
60979;SDS011;46851;49.160;8.980;2023-04-12T20:09:54;5.18;;;2.40;;
60979;SDS011;46851;49.160;8.980;2023-04-12T20:12:22;4.10;;;1.95;;
60979;SDS011;46851;49.160;8.980;2023-04-12T20:14:48;3.13;;;1.30;;
60979;SDS011;46851;49.160;8.980;2023-04-12T20:17:14;2.42;;;0.93;;
60979;SDS011;46851;49.160;8.980;2023-04-12T20:19:41;2.25;;;1.00;;
60979;SDS011;46851;49.160;8.980;2023-04-12T20:22:07;3.13;;;1.30;;
60979;SDS011;46851;49.160;8.980;2023-04-12T20:24:33;1.30;;;0.70;;
60979;SDS011;46851;49.160;8.980;2023-04-12T20:27:01;1.00;;;0.70;;
60979;SDS011;46851;49.160;8.980;2023-04-12T20:29:31;0.70;;;0.63;;
60979;SDS011;46851;49.160;8.980;2023-04-12T20:31:58;1.13;;;0.60;;
60979;SDS011;46851;49.160;8.980;2023-04-12T20:34:26;0.90;;;0.70;;
60979;SDS011;46851;49.160;8.980;2023-04-12T20:36:53;1.15;;;0.70;;
60979;SDS011;46851;49.160;8.980;2023-04-12T20:39:22;2.05;;;0.88;;
60979;SDS011;46851;49.160;8.980;2023-04-12T20:41:48;0.93;;;0.65;;
60979;SDS011;46851;49.160;8.980;2023-04-12T20:44:16;3.22;;;1.30;;
60979;SDS011;46851;49.160;8.980;2023-04-12T20:46:43;5.53;;;1.50;;
60979;SDS011;46851;49.160;8.980;2023-04-12T20:49:09;2.30;;;1.30;;
60979;SDS011;46851;49.160;8.980;2023-04-12T20:54:11;2.47;;;1.70;;
60979;SDS011;46851;49.160;8.980;2023-04-12T20:56:37;1.70;;;1.50;;
60979;SDS011;46851;49.160;8.980;2023-04-12T20:59:03;2.40;;;1.50;;
60979;SDS011;46851;49.160;8.980;2023-04-12T21:01:29;1.80;;;0.88;;
60979;SDS011;46851;49.160;8.980;2023-04-12T21:03:55;0.90;;;0.90;;
60979;SDS011;46851;49.160;8.980;2023-04-12T21:06:23;1.95;;;1.10;;
60979;SDS011;46851;49.160;8.980;2023-04-12T21:08:51;3.75;;;0.80;;
60979;SDS011;46851;49.160;8.980;2023-04-12T21:11:17;1.50;;;1.20;;
60979;SDS011;46851;49.160;8.980;2023-04-12T21:13:43;0.98;;;0.80;;
60979;SDS011;46851;49.160;8.980;2023-04-12T21:16:09;2.92;;;1.48;;
60979;SDS011;46851;49.160;8.980;2023-04-12T21:18:39;1.63;;;1.52;;
60979;SDS011;46851;49.160;8.980;2023-04-12T21:21:05;2.50;;;1.60;;
60979;SDS011;46851;49.160;8.980;2023-04-12T21:23:31;1.42;;;0.93;;
60979;SDS011;46851;49.160;8.980;2023-04-12T21:25:58;1.42;;;1.10;;
60979;SDS011;46851;49.160;8.980;2023-04-12T21:28:26;1.15;;;1.05;;
60979;SDS011;46851;49.160;8.980;2023-04-12T21:30:53;1.17;;;1.02;;
60979;SDS011;46851;49.160;8.980;2023-04-12T21:33:21;1.73;;;1.00;;
60979;SDS011;46851;49.160;8.980;2023-04-12T21:35:51;1.97;;;0.83;;
60979;SDS011;46851;49.160;8.980;2023-04-12T21:38:18;1.50;;;1.13;;
60979;SDS011;46851;49.160;8.980;2023-04-12T21:40:44;1.95;;;1.13;;
60979;SDS011;46851;49.160;8.980;2023-04-12T21:43:10;0.85;;;0.80;;
60979;SDS011;46851;49.160;8.980;2023-04-12T21:45:36;1.67;;;0.90;;
60979;SDS011;46851;49.160;8.980;2023-04-12T21:48:02;1.40;;;0.90;;
60979;SDS011;46851;49.160;8.980;2023-04-12T21:50:29;0.73;;;0.70;;
60979;SDS011;46851;49.160;8.980;2023-04-12T21:52:55;0.70;;;0.70;;
60979;SDS011;46851;49.160;8.980;2023-04-12T21:55:21;2.00;;;1.08;;
60979;SDS011;46851;49.160;8.980;2023-04-12T21:57:47;2.30;;;1.10;;
60979;SDS011;46851;49.160;8.980;2023-04-12T22:00:13;1.23;;;0.93;;
60979;SDS011;46851;49.160;8.980;2023-04-12T22:02:39;1.75;;;1.30;;
60979;SDS011;46851;49.160;8.980;2023-04-12T22:05:05;1.08;;;0.98;;
60979;SDS011;46851;49.160;8.980;2023-04-12T22:07:31;1.40;;;0.85;;
60979;SDS011;46851;49.160;8.980;2023-04-12T22:09:58;4.00;;;1.10;;
60979;SDS011;46851;49.160;8.980;2023-04-12T22:12:25;1.80;;;1.00;;
60979;SDS011;46851;49.160;8.980;2023-04-12T22:14:51;1.17;;;0.70;;
60979;SDS011;46851;49.160;8.980;2023-04-12T22:17:18;0.90;;;0.90;;
60979;SDS011;46851;49.160;8.980;2023-04-12T22:19:45;0.63;;;0.60;;
60979;SDS011;46851;49.160;8.980;2023-04-12T22:22:11;1.27;;;0.80;;
60979;SDS011;46851;49.160;8.980;2023-04-12T22:24:39;1.23;;;0.70;;
60979;SDS011;46851;49.160;8.980;2023-04-12T22:27:05;0.93;;;0.70;;
60979;SDS011;46851;49.160;8.980;2023-04-12T22:29:32;2.92;;;0.82;;
60979;SDS011;46851;49.160;8.980;2023-04-12T22:31:58;1.33;;;0.80;;
60979;SDS011;46851;49.160;8.980;2023-04-12T22:34:25;1.10;;;1.00;;
60979;SDS011;46851;49.160;8.980;2023-04-12T22:36:51;1.77;;;0.70;;
60979;SDS011;46851;49.160;8.980;2023-04-12T22:39:22;1.40;;;1.00;;
60979;SDS011;46851;49.160;8.980;2023-04-12T22:41:48;3.30;;;0.90;;
60979;SDS011;46851;49.160;8.980;2023-04-12T22:44:20;0.88;;;0.88;;
60979;SDS011;46851;49.160;8.980;2023-04-12T22:46:50;3.45;;;1.00;;
60979;SDS011;46851;49.160;8.980;2023-04-12T22:49:18;4.88;;;1.45;;
60979;SDS011;46851;49.160;8.980;2023-04-12T22:54:29;1.77;;;0.93;;
60979;SDS011;46851;49.160;8.980;2023-04-12T22:56:55;2.20;;;1.00;;
60979;SDS011;46851;49.160;8.980;2023-04-12T22:59:21;1.13;;;1.00;;
60979;SDS011;46851;49.160;8.980;2023-04-12T23:01:48;2.95;;;1.10;;
60979;SDS011;46851;49.160;8.980;2023-04-12T23:04:14;3.15;;;1.20;;
60979;SDS011;46851;49.160;8.980;2023-04-12T23:06:41;1.50;;;1.17;;
60979;SDS011;46851;49.160;8.980;2023-04-12T23:09:08;2.08;;;1.20;;
60979;SDS011;46851;49.160;8.980;2023-04-12T23:11:35;8.75;;;1.00;;
60979;SDS011;46851;49.160;8.980;2023-04-12T23:14:02;1.10;;;0.80;;
60979;SDS011;46851;49.160;8.980;2023-04-12T23:16:29;2.97;;;1.02;;
60979;SDS011;46851;49.160;8.980;2023-04-12T23:19:00;2.13;;;1.00;;
60979;SDS011;46851;49.160;8.980;2023-04-12T23:21:26;1.30;;;0.93;;
60979;SDS011;46851;49.160;8.980;2023-04-12T23:23:54;2.85;;;0.88;;
60979;SDS011;46851;49.160;8.980;2023-04-12T23:26:20;1.50;;;0.90;;
60979;SDS011;46851;49.160;8.980;2023-04-12T23:28:46;3.15;;;1.20;;
60979;SDS011;46851;49.160;8.980;2023-04-12T23:31:12;1.52;;;1.00;;
60979;SDS011;46851;49.160;8.980;2023-04-12T23:33:39;2.70;;;0.95;;
60979;SDS011;46851;49.160;8.980;2023-04-12T23:36:07;1.48;;;1.08;;
60979;SDS011;46851;49.160;8.980;2023-04-12T23:38:34;3.95;;;1.00;;
60979;SDS011;46851;49.160;8.980;2023-04-12T23:41:02;2.10;;;0.90;;
60979;SDS011;46851;49.160;8.980;2023-04-12T23:43:29;2.97;;;0.80;;
60979;SDS011;46851;49.160;8.980;2023-04-12T23:45:56;2.67;;;1.20;;
60979;SDS011;46851;49.160;8.980;2023-04-12T23:48:22;3.03;;;1.15;;
60979;SDS011;46851;49.160;8.980;2023-04-12T23:50:49;3.80;;;1.02;;
60979;SDS011;46851;49.160;8.980;2023-04-12T23:53:16;0.77;;;0.70;;
60979;SDS011;46851;49.160;8.980;2023-04-12T23:55:42;1.42;;;1.08;;
60979;SDS011;46851;49.160;8.980;2023-04-12T23:58:08;2.20;;;0.93;;
